Portada
METAR-TAF:

METAR-TAF

Aeroports :

Guwahati, Índia

latitud: 26-06-22N, longitud: 091-35-09E, altitud: 49 m

Observació

L'informe es va fer fa 23 minuts, a les 11:00 UTC
Vent calma
Temperatura 23°C
Humitat 65%
Pressió 1014 hPa
Visibilitat: 4000 m
Núvols disperses a una alçada de 1800 ft
Cel ennuvolat a una alçada de 10000 ft
calitja

METAR: VEGT 151100Z 00000KT 4000 HZ SCT018 BKN100 23/16 Q1014 NOSIG

Hora: 16:53 (11:23 UTC)

Pronòstic

L'informe es va fer fa 3 hores i 23 minuts, a les 08:00 UTC
Pronòstic vàlid del 15 a les 09 UTC al 15 a les 18 UTC
Vent 5 kt del Nord/Nord-Est
Visibilitat: 5000 m
Escasses núvols a una alçada de 2000 ft
Núvols disperses a una alçada de 10000 ft
calitja
Evolucionant progressivament
l' 15 a les 12 UTC al 15 a les 14 UTC
Vent kt del Nord
Visibilitat: 3000 m
boirina

TAF: VEGT 150800Z 1509/1518 03005KT 5000 HZ FEW020 SCT100 BECMG 1512/1514 00000KT 3000 BR

Observacions i pronòstics meteorològics de més de 4000 aeroports (METAR i TAF).

Les estacions disponibles són els punts grocs i vermells al mapa.

Posi el ratolí al punt desitjat per veure el nom de l'estació.

Feu clic per veure les observacions i els pronòstics meteorològics.

Per canviar el mapa: feu clic els botons verds amb una creu de color negre per apropar; al botó verd amb un guió per allunyar la imatge; o en les fletxes verdes per a mapes adjacents.


METAR-TAF: